Terminal Aerodrome Forecast
Issued by NWS Dodge City, KS

Home | Current Version | Previous Version | Text Only | Print | Product List | Glossary On
Versions: 1 2 3 4 5 6 7 8 9 10 11 12 13 14 15 16 17 18 19 20 21 22 23 24 25 26 27 28 29 30
000
FTUS43 KDDC 161419 AAB
TAFDDC
TAF AMD
KDDC 161419Z 1614/1712 01011G20KT P6SM VCSH OVC005
     FM161600 34013KT P6SM OVC010
     FM170700 32009KT P6SM BKN020=

USA.gov is the U.S. government's official web portal to all federal, state and local government web resources and services.